sensor_id;sensor_type;location;lat;lon;timestamp;P1;durP1;ratioP1;P2;durP2;ratioP2
72286;SDS011;60221;45.696;16.076;2023-06-22T00:02:19;10.50;;;2.60;;
72286;SDS011;60221;45.696;16.076;2023-06-22T00:04:46;8.20;;;2.70;;
72286;SDS011;60221;45.696;16.076;2023-06-22T00:07:13;7.50;;;2.70;;
72286;SDS011;60221;45.696;16.076;2023-06-22T00:09:39;11.40;;;2.80;;
72286;SDS011;60221;45.696;16.076;2023-06-22T00:12:06;10.20;;;2.90;;
72286;SDS011;60221;45.696;16.076;2023-06-22T00:14:33;11.30;;;2.70;;
72286;SDS011;60221;45.696;16.076;2023-06-22T00:16:59;7.80;;;2.40;;
72286;SDS011;60221;45.696;16.076;2023-06-22T00:19:26;6.10;;;2.40;;
72286;SDS011;60221;45.696;16.076;2023-06-22T00:21:53;7.30;;;2.60;;
72286;SDS011;60221;45.696;16.076;2023-06-22T00:24:20;10.60;;;2.80;;
72286;SDS011;60221;45.696;16.076;2023-06-22T00:26:47;9.10;;;2.70;;
72286;SDS011;60221;45.696;16.076;2023-06-22T00:29:14;8.20;;;2.60;;
72286;SDS011;60221;45.696;16.076;2023-06-22T00:31:41;9.00;;;2.90;;
72286;SDS011;60221;45.696;16.076;2023-06-22T00:34:08;9.20;;;2.60;;
72286;SDS011;60221;45.696;16.076;2023-06-22T00:36:36;9.90;;;3.10;;
72286;SDS011;60221;45.696;16.076;2023-06-22T00:39:02;8.80;;;2.80;;
72286;SDS011;60221;45.696;16.076;2023-06-22T00:41:30;8.60;;;2.60;;
72286;SDS011;60221;45.696;16.076;2023-06-22T00:43:57;8.30;;;2.50;;
72286;SDS011;60221;45.696;16.076;2023-06-22T00:46:23;8.50;;;2.60;;
72286;SDS011;60221;45.696;16.076;2023-06-22T00:48:51;12.40;;;3.40;;
72286;SDS011;60221;45.696;16.076;2023-06-22T00:51:19;8.10;;;2.40;;
72286;SDS011;60221;45.696;16.076;2023-06-22T00:53:51;9.60;;;2.60;;
72286;SDS011;60221;45.696;16.076;2023-06-22T00:56:18;9.70;;;2.80;;
72286;SDS011;60221;45.696;16.076;2023-06-22T00:58:46;13.10;;;2.90;;
72286;SDS011;60221;45.696;16.076;2023-06-22T01:01:15;12.50;;;3.30;;
72286;SDS011;60221;45.696;16.076;2023-06-22T01:03:42;6.70;;;2.50;;
72286;SDS011;60221;45.696;16.076;2023-06-22T01:06:10;11.10;;;2.90;;
72286;SDS011;60221;45.696;16.076;2023-06-22T01:09:00;8.70;;;2.60;;
72286;SDS011;60221;45.696;16.076;2023-06-22T01:11:35;8.80;;;2.50;;
72286;SDS011;60221;45.696;16.076;2023-06-22T01:16:31;7.10;;;2.30;;
72286;SDS011;60221;45.696;16.076;2023-06-22T01:19:00;8.10;;;2.60;;
72286;SDS011;60221;45.696;16.076;2023-06-22T01:21:28;14.40;;;3.00;;
72286;SDS011;60221;45.696;16.076;2023-06-22T01:24:02;7.20;;;2.30;;
72286;SDS011;60221;45.696;16.076;2023-06-22T01:26:37;11.20;;;2.50;;
72286;SDS011;60221;45.696;16.076;2023-06-22T01:29:05;8.00;;;2.80;;
72286;SDS011;60221;45.696;16.076;2023-06-22T01:31:33;11.10;;;2.80;;
72286;SDS011;60221;45.696;16.076;2023-06-22T01:34:02;9.00;;;2.90;;
72286;SDS011;60221;45.696;16.076;2023-06-22T01:36:30;11.80;;;2.90;;
72286;SDS011;60221;45.696;16.076;2023-06-22T01:38:57;10.40;;;2.90;;
72286;SDS011;60221;45.696;16.076;2023-06-22T01:41:28;8.30;;;2.70;;
72286;SDS011;60221;45.696;16.076;2023-06-22T01:43:55;10.60;;;3.40;;
72286;SDS011;60221;45.696;16.076;2023-06-22T01:46:22;11.90;;;3.40;;
72286;SDS011;60221;45.696;16.076;2023-06-22T01:48:49;9.80;;;3.50;;
72286;SDS011;60221;45.696;16.076;2023-06-22T01:51:17;9.80;;;2.80;;
72286;SDS011;60221;45.696;16.076;2023-06-22T01:53:43;6.90;;;2.60;;
72286;SDS011;60221;45.696;16.076;2023-06-22T01:56:10;9.00;;;3.00;;
72286;SDS011;60221;45.696;16.076;2023-06-22T01:58:39;9.80;;;3.00;;
72286;SDS011;60221;45.696;16.076;2023-06-22T02:01:10;8.30;;;3.10;;
72286;SDS011;60221;45.696;16.076;2023-06-22T02:03:44;9.20;;;3.10;;
72286;SDS011;60221;45.696;16.076;2023-06-22T02:06:15;10.60;;;2.80;;
72286;SDS011;60221;45.696;16.076;2023-06-22T02:08:48;7.80;;;2.70;;
72286;SDS011;60221;45.696;16.076;2023-06-22T02:11:18;11.40;;;3.00;;
72286;SDS011;60221;45.696;16.076;2023-06-22T02:13:45;10.90;;;2.60;;
72286;SDS011;60221;45.696;16.076;2023-06-22T02:16:12;9.30;;;3.00;;
72286;SDS011;60221;45.696;16.076;2023-06-22T02:18:45;8.40;;;2.70;;
72286;SDS011;60221;45.696;16.076;2023-06-22T02:21:12;8.30;;;2.80;;
72286;SDS011;60221;45.696;16.076;2023-06-22T02:23:38;9.70;;;3.30;;
72286;SDS011;60221;45.696;16.076;2023-06-22T02:26:05;7.20;;;2.90;;
72286;SDS011;60221;45.696;16.076;2023-06-22T02:28:32;10.60;;;3.30;;
72286;SDS011;60221;45.696;16.076;2023-06-22T02:30:58;9.80;;;3.00;;
72286;SDS011;60221;45.696;16.076;2023-06-22T02:33:25;8.50;;;2.30;;
72286;SDS011;60221;45.696;16.076;2023-06-22T02:35:52;12.40;;;3.50;;
72286;SDS011;60221;45.696;16.076;2023-06-22T02:38:20;10.20;;;3.60;;
72286;SDS011;60221;45.696;16.076;2023-06-22T02:40:47;9.40;;;2.70;;
72286;SDS011;60221;45.696;16.076;2023-06-22T02:43:13;9.00;;;2.70;;
72286;SDS011;60221;45.696;16.076;2023-06-22T02:45:42;6.60;;;2.60;;
72286;SDS011;60221;45.696;16.076;2023-06-22T02:48:10;8.30;;;3.00;;
72286;SDS011;60221;45.696;16.076;2023-06-22T02:50:36;12.20;;;2.50;;
72286;SDS011;60221;45.696;16.076;2023-06-22T02:53:03;13.90;;;5.20;;
72286;SDS011;60221;45.696;16.076;2023-06-22T02:55:33;10.10;;;2.90;;
72286;SDS011;60221;45.696;16.076;2023-06-22T02:58:00;8.10;;;3.20;;
72286;SDS011;60221;45.696;16.076;2023-06-22T03:00:32;9.30;;;2.50;;
72286;SDS011;60221;45.696;16.076;2023-06-22T03:02:59;7.60;;;3.10;;
72286;SDS011;60221;45.696;16.076;2023-06-22T03:05:26;11.30;;;3.30;;
72286;SDS011;60221;45.696;16.076;2023-06-22T03:07:53;9.40;;;3.50;;
72286;SDS011;60221;45.696;16.076;2023-06-22T03:10:21;8.40;;;3.00;;
72286;SDS011;60221;45.696;16.076;2023-06-22T03:12:47;10.80;;;3.20;;
72286;SDS011;60221;45.696;16.076;2023-06-22T03:15:14;12.00;;;3.10;;
72286;SDS011;60221;45.696;16.076;2023-06-22T03:17:41;10.80;;;3.40;;
72286;SDS011;60221;45.696;16.076;2023-06-22T03:20:08;7.80;;;3.10;;
72286;SDS011;60221;45.696;16.076;2023-06-22T03:22:37;10.00;;;3.10;;
72286;SDS011;60221;45.696;16.076;2023-06-22T03:25:04;10.50;;;3.30;;
72286;SDS011;60221;45.696;16.076;2023-06-22T03:27:37;10.90;;;3.50;;
72286;SDS011;60221;45.696;16.076;2023-06-22T03:30:06;10.10;;;3.00;;
72286;SDS011;60221;45.696;16.076;2023-06-22T03:32:33;13.40;;;3.40;;
72286;SDS011;60221;45.696;16.076;2023-06-22T03:35:00;8.90;;;3.40;;
72286;SDS011;60221;45.696;16.076;2023-06-22T03:37:27;10.40;;;3.00;;
72286;SDS011;60221;45.696;16.076;2023-06-22T03:39:53;8.20;;;2.90;;
72286;SDS011;60221;45.696;16.076;2023-06-22T03:42:20;9.00;;;3.00;;
72286;SDS011;60221;45.696;16.076;2023-06-22T03:44:47;11.30;;;3.20;;
72286;SDS011;60221;45.696;16.076;2023-06-22T03:47:14;7.20;;;3.10;;
72286;SDS011;60221;45.696;16.076;2023-06-22T03:49:41;7.50;;;2.90;;
72286;SDS011;60221;45.696;16.076;2023-06-22T03:52:07;9.90;;;2.70;;
72286;SDS011;60221;45.696;16.076;2023-06-22T03:54:34;9.80;;;2.70;;
72286;SDS011;60221;45.696;16.076;2023-06-22T03:57:01;10.70;;;3.40;;
72286;SDS011;60221;45.696;16.076;2023-06-22T03:59:27;8.40;;;3.20;;
72286;SDS011;60221;45.696;16.076;2023-06-22T04:01:54;9.50;;;3.20;;
72286;SDS011;60221;45.696;16.076;2023-06-22T04:04:21;9.10;;;3.80;;
72286;SDS011;60221;45.696;16.076;2023-06-22T04:06:47;12.00;;;3.60;;
72286;SDS011;60221;45.696;16.076;2023-06-22T04:09:14;11.70;;;4.10;;
72286;SDS011;60221;45.696;16.076;2023-06-22T04:11:41;8.30;;;3.20;;
72286;SDS011;60221;45.696;16.076;2023-06-22T04:14:07;9.50;;;3.60;;
72286;SDS011;60221;45.696;16.076;2023-06-22T04:16:34;11.20;;;3.30;;
72286;SDS011;60221;45.696;16.076;2023-06-22T04:19:00;9.90;;;3.90;;
72286;SDS011;60221;45.696;16.076;2023-06-22T04:21:27;8.10;;;3.50;;
72286;SDS011;60221;45.696;16.076;2023-06-22T04:23:54;11.80;;;4.00;;
72286;SDS011;60221;45.696;16.076;2023-06-22T04:26:21;7.80;;;3.30;;
72286;SDS011;60221;45.696;16.076;2023-06-22T04:28:48;8.80;;;4.00;;
72286;SDS011;60221;45.696;16.076;2023-06-22T04:31:18;14.30;;;4.80;;
72286;SDS011;60221;45.696;16.076;2023-06-22T04:33:48;12.10;;;4.00;;
72286;SDS011;60221;45.696;16.076;2023-06-22T04:39:08;10.50;;;3.90;;
72286;SDS011;60221;45.696;16.076;2023-06-22T04:41:39;11.30;;;3.90;;
72286;SDS011;60221;45.696;16.076;2023-06-22T04:44:13;10.50;;;4.10;;
72286;SDS011;60221;45.696;16.076;2023-06-22T04:46:39;13.30;;;3.70;;
72286;SDS011;60221;45.696;16.076;2023-06-22T04:49:07;20.20;;;4.70;;
72286;SDS011;60221;45.696;16.076;2023-06-22T04:51:40;11.40;;;3.50;;
72286;SDS011;60221;45.696;16.076;2023-06-22T04:54:07;10.60;;;4.20;;
72286;SDS011;60221;45.696;16.076;2023-06-22T04:56:34;9.00;;;3.90;;
72286;SDS011;60221;45.696;16.076;2023-06-22T04:59:01;10.40;;;4.00;;
72286;SDS011;60221;45.696;16.076;2023-06-22T05:01:28;10.00;;;4.40;;
72286;SDS011;60221;45.696;16.076;2023-06-22T05:03:54;9.20;;;4.30;;
72286;SDS011;60221;45.696;16.076;2023-06-22T05:06:27;11.00;;;4.50;;
72286;SDS011;60221;45.696;16.076;2023-06-22T05:08:55;7.60;;;4.10;;
72286;SDS011;60221;45.696;16.076;2023-06-22T05:11:27;10.20;;;4.70;;
72286;SDS011;60221;45.696;16.076;2023-06-22T05:13:54;10.40;;;4.70;;
72286;SDS011;60221;45.696;16.076;2023-06-22T05:16:21;9.80;;;4.30;;
72286;SDS011;60221;45.696;16.076;2023-06-22T05:18:53;9.70;;;4.40;;
72286;SDS011;60221;45.696;16.076;2023-06-22T05:21:25;11.10;;;4.60;;
72286;SDS011;60221;45.696;16.076;2023-06-22T05:23:52;12.20;;;4.70;;
72286;SDS011;60221;45.696;16.076;2023-06-22T05:26:20;10.40;;;5.60;;
72286;SDS011;60221;45.696;16.076;2023-06-22T05:28:47;11.70;;;4.80;;
72286;SDS011;60221;45.696;16.076;2023-06-22T05:31:14;12.30;;;4.70;;
72286;SDS011;60221;45.696;16.076;2023-06-22T05:33:41;10.20;;;4.60;;
72286;SDS011;60221;45.696;16.076;2023-06-22T05:36:08;12.00;;;4.40;;
72286;SDS011;60221;45.696;16.076;2023-06-22T05:38:35;11.00;;;4.50;;
72286;SDS011;60221;45.696;16.076;2023-06-22T05:41:02;9.20;;;4.40;;
72286;SDS011;60221;45.696;16.076;2023-06-22T05:43:29;12.20;;;4.60;;
72286;SDS011;60221;45.696;16.076;2023-06-22T05:45:55;10.20;;;4.60;;
72286;SDS011;60221;45.696;16.076;2023-06-22T05:48:22;9.90;;;4.20;;
72286;SDS011;60221;45.696;16.076;2023-06-22T05:50:49;9.20;;;4.70;;
72286;SDS011;60221;45.696;16.076;2023-06-22T05:53:16;9.60;;;4.80;;
72286;SDS011;60221;45.696;16.076;2023-06-22T05:55:42;10.70;;;4.20;;
72286;SDS011;60221;45.696;16.076;2023-06-22T05:58:09;14.10;;;4.90;;
72286;SDS011;60221;45.696;16.076;2023-06-22T06:00:36;10.20;;;4.30;;
72286;SDS011;60221;45.696;16.076;2023-06-22T06:03:03;12.10;;;4.70;;
72286;SDS011;60221;45.696;16.076;2023-06-22T06:05:30;11.70;;;4.20;;
72286;SDS011;60221;45.696;16.076;2023-06-22T06:07:58;9.30;;;4.70;;
72286;SDS011;60221;45.696;16.076;2023-06-22T06:10:24;11.30;;;4.80;;
72286;SDS011;60221;45.696;16.076;2023-06-22T06:12:52;9.30;;;4.40;;
72286;SDS011;60221;45.696;16.076;2023-06-22T06:15:18;9.10;;;5.20;;
72286;SDS011;60221;45.696;16.076;2023-06-22T06:17:49;9.60;;;5.10;;
72286;SDS011;60221;45.696;16.076;2023-06-22T06:20:18;11.30;;;4.90;;
72286;SDS011;60221;45.696;16.076;2023-06-22T06:22:45;9.10;;;4.70;;
72286;SDS011;60221;45.696;16.076;2023-06-22T06:25:13;10.70;;;4.90;;
72286;SDS011;60221;45.696;16.076;2023-06-22T06:27:43;12.20;;;5.00;;
72286;SDS011;60221;45.696;16.076;2023-06-22T06:30:10;11.70;;;5.00;;
72286;SDS011;60221;45.696;16.076;2023-06-22T06:32:37;13.10;;;5.50;;
72286;SDS011;60221;45.696;16.076;2023-06-22T06:35:08;11.90;;;5.60;;
72286;SDS011;60221;45.696;16.076;2023-06-22T06:37:35;11.60;;;5.30;;
72286;SDS011;60221;45.696;16.076;2023-06-22T06:40:03;15.00;;;5.10;;
72286;SDS011;60221;45.696;16.076;2023-06-22T06:42:31;16.90;;;5.50;;
72286;SDS011;60221;45.696;16.076;2023-06-22T06:44:58;11.60;;;5.20;;
72286;SDS011;60221;45.696;16.076;2023-06-22T06:47:25;14.20;;;5.30;;
72286;SDS011;60221;45.696;16.076;2023-06-22T06:49:51;11.70;;;5.40;;
72286;SDS011;60221;45.696;16.076;2023-06-22T06:52:18;9.40;;;5.20;;
72286;SDS011;60221;45.696;16.076;2023-06-22T06:54:46;10.10;;;5.70;;
72286;SDS011;60221;45.696;16.076;2023-06-22T06:57:13;12.70;;;5.60;;
72286;SDS011;60221;45.696;16.076;2023-06-22T06:59:40;12.10;;;5.60;;
72286;SDS011;60221;45.696;16.076;2023-06-22T07:02:06;9.90;;;6.00;;
72286;SDS011;60221;45.696;16.076;2023-06-22T07:04:33;12.60;;;6.00;;
72286;SDS011;60221;45.696;16.076;2023-06-22T07:07:01;12.10;;;5.80;;
72286;SDS011;60221;45.696;16.076;2023-06-22T07:09:28;11.00;;;5.80;;
72286;SDS011;60221;45.696;16.076;2023-06-22T07:11:54;13.80;;;5.90;;
72286;SDS011;60221;45.696;16.076;2023-06-22T07:14:21;14.90;;;6.10;;
72286;SDS011;60221;45.696;16.076;2023-06-22T07:16:48;17.00;;;6.50;;
72286;SDS011;60221;45.696;16.076;2023-06-22T07:19:14;11.50;;;5.50;;
72286;SDS011;60221;45.696;16.076;2023-06-22T07:21:41;10.00;;;5.60;;
72286;SDS011;60221;45.696;16.076;2023-06-22T07:24:08;9.80;;;6.00;;
72286;SDS011;60221;45.696;16.076;2023-06-22T07:26:34;13.30;;;5.80;;
72286;SDS011;60221;45.696;16.076;2023-06-22T07:29:01;9.80;;;5.60;;
72286;SDS011;60221;45.696;16.076;2023-06-22T07:31:28;9.20;;;6.60;;
72286;SDS011;60221;45.696;16.076;2023-06-22T07:33:54;11.50;;;6.10;;
72286;SDS011;60221;45.696;16.076;2023-06-22T07:36:21;9.50;;;6.10;;
72286;SDS011;60221;45.696;16.076;2023-06-22T07:38:48;11.90;;;5.10;;
72286;SDS011;60221;45.696;16.076;2023-06-22T07:41:15;9.80;;;5.90;;
72286;SDS011;60221;45.696;16.076;2023-06-22T07:43:42;12.10;;;6.50;;
72286;SDS011;60221;45.696;16.076;2023-06-22T07:46:09;9.50;;;5.80;;
72286;SDS011;60221;45.696;16.076;2023-06-22T07:48:37;9.70;;;6.50;;
72286;SDS011;60221;45.696;16.076;2023-06-22T07:51:04;12.30;;;6.40;;
72286;SDS011;60221;45.696;16.076;2023-06-22T07:53:32;10.90;;;6.90;;
72286;SDS011;60221;45.696;16.076;2023-06-22T07:55:58;14.30;;;6.80;;
72286;SDS011;60221;45.696;16.076;2023-06-22T07:58:25;14.80;;;7.70;;
72286;SDS011;60221;45.696;16.076;2023-06-22T08:00:52;9.80;;;6.70;;
72286;SDS011;60221;45.696;16.076;2023-06-22T08:03:19;9.50;;;6.40;;
72286;SDS011;60221;45.696;16.076;2023-06-22T08:05:45;16.30;;;7.30;;
72286;SDS011;60221;45.696;16.076;2023-06-22T08:08:12;14.10;;;7.00;;
72286;SDS011;60221;45.696;16.076;2023-06-22T08:10:41;12.40;;;6.00;;
72286;SDS011;60221;45.696;16.076;2023-06-22T08:13:09;13.50;;;7.00;;
72286;SDS011;60221;45.696;16.076;2023-06-22T08:15:36;17.70;;;6.40;;
72286;SDS011;60221;45.696;16.076;2023-06-22T08:18:03;14.80;;;7.10;;
72286;SDS011;60221;45.696;16.076;2023-06-22T08:20:29;11.40;;;6.30;;
72286;SDS011;60221;45.696;16.076;2023-06-22T08:22:56;11.60;;;6.40;;
72286;SDS011;60221;45.696;16.076;2023-06-22T08:25:24;12.40;;;6.50;;
72286;SDS011;60221;45.696;16.076;2023-06-22T08:27:51;17.90;;;8.40;;
72286;SDS011;60221;45.696;16.076;2023-06-22T08:30:18;52.40;;;13.50;;
72286;SDS011;60221;45.696;16.076;2023-06-22T08:32:45;59.20;;;20.10;;
72286;SDS011;60221;45.696;16.076;2023-06-22T08:35:12;14.10;;;6.60;;
72286;SDS011;60221;45.696;16.076;2023-06-22T08:37:38;9.80;;;5.80;;
72286;SDS011;60221;45.696;16.076;2023-06-22T08:40:07;18.00;;;7.50;;
72286;SDS011;60221;45.696;16.076;2023-06-22T08:42:35;14.20;;;6.70;;
72286;SDS011;60221;45.696;16.076;2023-06-22T08:45:01;12.20;;;6.40;;
72286;SDS011;60221;45.696;16.076;2023-06-22T08:47:28;11.60;;;6.50;;
72286;SDS011;60221;45.696;16.076;2023-06-22T08:49:55;11.80;;;6.20;;
72286;SDS011;60221;45.696;16.076;2023-06-22T08:52:22;11.60;;;6.00;;
72286;SDS011;60221;45.696;16.076;2023-06-22T08:54:50;11.60;;;5.80;;
72286;SDS011;60221;45.696;16.076;2023-06-22T08:57:17;12.00;;;6.00;;
72286;SDS011;60221;45.696;16.076;2023-06-22T08:59:43;14.00;;;5.40;;
72286;SDS011;60221;45.696;16.076;2023-06-22T09:02:10;9.90;;;5.80;;
72286;SDS011;60221;45.696;16.076;2023-06-22T09:04:37;12.40;;;6.40;;
72286;SDS011;60221;45.696;16.076;2023-06-22T09:07:04;14.10;;;6.60;;
72286;SDS011;60221;45.696;16.076;2023-06-22T09:09:31;11.90;;;7.20;;
72286;SDS011;60221;45.696;16.076;2023-06-22T09:11:57;10.10;;;6.50;;
72286;SDS011;60221;45.696;16.076;2023-06-22T09:14:24;11.90;;;6.50;;
72286;SDS011;60221;45.696;16.076;2023-06-22T09:16:51;11.90;;;7.70;;
72286;SDS011;60221;45.696;16.076;2023-06-22T09:19:17;12.90;;;6.90;;
72286;SDS011;60221;45.696;16.076;2023-06-22T09:21:44;10.70;;;6.60;;
72286;SDS011;60221;45.696;16.076;2023-06-22T09:24:11;12.10;;;6.50;;
72286;SDS011;60221;45.696;16.076;2023-06-22T09:26:38;12.10;;;6.30;;
72286;SDS011;60221;45.696;16.076;2023-06-22T09:29:05;14.50;;;7.60;;
72286;SDS011;60221;45.696;16.076;2023-06-22T09:31:32;17.10;;;7.90;;
72286;SDS011;60221;45.696;16.076;2023-06-22T09:33:59;13.80;;;7.10;;
72286;SDS011;60221;45.696;16.076;2023-06-22T09:36:26;8.90;;;6.30;;
72286;SDS011;60221;45.696;16.076;2023-06-22T09:38:52;12.90;;;6.90;;
72286;SDS011;60221;45.696;16.076;2023-06-22T09:41:21;8.90;;;6.40;;
72286;SDS011;60221;45.696;16.076;2023-06-22T09:43:48;11.20;;;7.00;;
72286;SDS011;60221;45.696;16.076;2023-06-22T09:46:15;10.40;;;7.20;;
72286;SDS011;60221;45.696;16.076;2023-06-22T09:48:42;12.70;;;7.50;;
72286;SDS011;60221;45.696;16.076;2023-06-22T09:51:08;12.00;;;7.00;;
72286;SDS011;60221;45.696;16.076;2023-06-22T09:53:35;12.30;;;7.80;;
72286;SDS011;60221;45.696;16.076;2023-06-22T09:56:02;12.50;;;7.50;;
72286;SDS011;60221;45.696;16.076;2023-06-22T09:58:28;11.30;;;7.10;;
72286;SDS011;60221;45.696;16.076;2023-06-22T10:00:55;9.80;;;7.10;;
72286;SDS011;60221;45.696;16.076;2023-06-22T10:03:22;12.00;;;7.60;;
72286;SDS011;60221;45.696;16.076;2023-06-22T10:05:49;11.60;;;7.40;;
72286;SDS011;60221;45.696;16.076;2023-06-22T10:08:16;12.30;;;7.50;;
72286;SDS011;60221;45.696;16.076;2023-06-22T10:10:42;13.90;;;7.10;;
72286;SDS011;60221;45.696;16.076;2023-06-22T10:13:09;13.60;;;7.30;;
72286;SDS011;60221;45.696;16.076;2023-06-22T10:15:37;13.10;;;7.30;;
72286;SDS011;60221;45.696;16.076;2023-06-22T10:18:04;14.30;;;6.80;;
72286;SDS011;60221;45.696;16.076;2023-06-22T10:20:30;11.00;;;6.50;;
72286;SDS011;60221;45.696;16.076;2023-06-22T10:22:57;11.80;;;7.70;;
72286;SDS011;60221;45.696;16.076;2023-06-22T10:25:26;11.60;;;7.10;;
72286;SDS011;60221;45.696;16.076;2023-06-22T10:27:53;12.70;;;7.30;;
72286;SDS011;60221;45.696;16.076;2023-06-22T10:30:20;9.60;;;7.50;;
72286;SDS011;60221;45.696;16.076;2023-06-22T10:32:47;14.90;;;7.40;;
72286;SDS011;60221;45.696;16.076;2023-06-22T10:35:14;13.70;;;7.80;;
72286;SDS011;60221;45.696;16.076;2023-06-22T10:37:45;11.50;;;7.80;;
72286;SDS011;60221;45.696;16.076;2023-06-22T10:40:13;10.10;;;7.60;;
72286;SDS011;60221;45.696;16.076;2023-06-22T10:42:40;12.70;;;7.80;;
72286;SDS011;60221;45.696;16.076;2023-06-22T10:45:07;11.90;;;8.50;;
72286;SDS011;60221;45.696;16.076;2023-06-22T10:47:34;10.40;;;8.40;;
72286;SDS011;60221;45.696;16.076;2023-06-22T10:50:01;13.10;;;8.50;;
72286;SDS011;60221;45.696;16.076;2023-06-22T10:52:28;13.10;;;8.70;;
72286;SDS011;60221;45.696;16.076;2023-06-22T10:54:55;11.00;;;8.70;;
72286;SDS011;60221;45.696;16.076;2023-06-22T10:57:21;11.50;;;8.70;;
72286;SDS011;60221;45.696;16.076;2023-06-22T10:59:48;11.40;;;8.90;;
72286;SDS011;60221;45.696;16.076;2023-06-22T11:02:15;14.80;;;8.70;;
72286;SDS011;60221;45.696;16.076;2023-06-22T11:04:42;13.80;;;8.90;;
72286;SDS011;60221;45.696;16.076;2023-06-22T11:07:09;12.50;;;8.10;;
72286;SDS011;60221;45.696;16.076;2023-06-22T11:09:35;13.90;;;9.60;;
72286;SDS011;60221;45.696;16.076;2023-06-22T11:12:02;11.30;;;8.70;;
72286;SDS011;60221;45.696;16.076;2023-06-22T11:14:29;14.00;;;9.10;;
72286;SDS011;60221;45.696;16.076;2023-06-22T11:16:56;12.90;;;9.30;;
72286;SDS011;60221;45.696;16.076;2023-06-22T11:19:23;14.40;;;8.40;;
72286;SDS011;60221;45.696;16.076;2023-06-22T11:21:49;11.40;;;8.90;;
72286;SDS011;60221;45.696;16.076;2023-06-22T11:24:16;12.70;;;9.60;;
72286;SDS011;60221;45.696;16.076;2023-06-22T11:26:43;11.70;;;9.30;;
72286;SDS011;60221;45.696;16.076;2023-06-22T11:29:10;12.80;;;9.10;;
72286;SDS011;60221;45.696;16.076;2023-06-22T11:31:53;11.30;;;9.40;;
72286;SDS011;60221;45.696;16.076;2023-06-22T11:34:19;11.90;;;9.40;;
72286;SDS011;60221;45.696;16.076;2023-06-22T11:36:46;12.90;;;10.10;;
72286;SDS011;60221;45.696;16.076;2023-06-22T11:39:14;15.80;;;10.00;;
72286;SDS011;60221;45.696;16.076;2023-06-22T11:41:41;11.80;;;8.40;;
72286;SDS011;60221;45.696;16.076;2023-06-22T11:44:08;11.40;;;8.80;;
72286;SDS011;60221;45.696;16.076;2023-06-22T11:46:35;12.70;;;8.70;;
72286;SDS011;60221;45.696;16.076;2023-06-22T11:49:02;15.40;;;9.20;;
72286;SDS011;60221;45.696;16.076;2023-06-22T11:51:28;11.90;;;8.90;;
72286;SDS011;60221;45.696;16.076;2023-06-22T11:53:58;13.40;;;9.20;;
72286;SDS011;60221;45.696;16.076;2023-06-22T11:56:25;11.30;;;8.60;;
72286;SDS011;60221;45.696;16.076;2023-06-22T11:58:52;13.10;;;9.20;;
72286;SDS011;60221;45.696;16.076;2023-06-22T12:01:19;12.00;;;8.60;;
72286;SDS011;60221;45.696;16.076;2023-06-22T12:03:45;12.10;;;8.40;;
72286;SDS011;60221;45.696;16.076;2023-06-22T12:06:12;13.80;;;9.00;;
72286;SDS011;60221;45.696;16.076;2023-06-22T12:08:39;13.60;;;8.90;;
72286;SDS011;60221;45.696;16.076;2023-06-22T12:11:06;13.50;;;9.30;;
72286;SDS011;60221;45.696;16.076;2023-06-22T12:13:33;13.20;;;9.10;;
72286;SDS011;60221;45.696;16.076;2023-06-22T12:16:00;12.30;;;8.60;;
72286;SDS011;60221;45.696;16.076;2023-06-22T12:18:26;15.40;;;10.20;;
72286;SDS011;60221;45.696;16.076;2023-06-22T12:20:53;12.40;;;8.50;;
72286;SDS011;60221;45.696;16.076;2023-06-22T12:23:20;15.40;;;8.30;;
72286;SDS011;60221;45.696;16.076;2023-06-22T12:25:46;11.80;;;8.40;;
72286;SDS011;60221;45.696;16.076;2023-06-22T12:28:13;12.40;;;8.20;;
72286;SDS011;60221;45.696;16.076;2023-06-22T12:30:40;12.50;;;8.70;;
72286;SDS011;60221;45.696;16.076;2023-06-22T12:33:07;13.40;;;8.50;;
72286;SDS011;60221;45.696;16.076;2023-06-22T12:35:34;13.40;;;8.80;;
72286;SDS011;60221;45.696;16.076;2023-06-22T12:38:01;14.00;;;7.80;;
72286;SDS011;60221;45.696;16.076;2023-06-22T12:40:27;12.20;;;7.90;;
72286;SDS011;60221;45.696;16.076;2023-06-22T12:42:55;14.40;;;8.10;;
72286;SDS011;60221;45.696;16.076;2023-06-22T12:45:21;10.20;;;8.20;;
72286;SDS011;60221;45.696;16.076;2023-06-22T12:47:48;12.20;;;8.70;;
72286;SDS011;60221;45.696;16.076;2023-06-22T12:50:16;13.20;;;8.60;;
72286;SDS011;60221;45.696;16.076;2023-06-22T12:52:43;13.70;;;9.30;;
72286;SDS011;60221;45.696;16.076;2023-06-22T12:55:10;16.30;;;8.30;;
72286;SDS011;60221;45.696;16.076;2023-06-22T12:57:36;13.70;;;8.30;;
72286;SDS011;60221;45.696;16.076;2023-06-22T13:00:03;12.80;;;8.60;;
72286;SDS011;60221;45.696;16.076;2023-06-22T13:02:31;14.30;;;8.90;;
72286;SDS011;60221;45.696;16.076;2023-06-22T13:04:58;19.40;;;8.30;;
72286;SDS011;60221;45.696;16.076;2023-06-22T13:07:25;17.10;;;8.20;;
72286;SDS011;60221;45.696;16.076;2023-06-22T13:09:52;12.30;;;8.50;;
72286;SDS011;60221;45.696;16.076;2023-06-22T13:12:22;11.70;;;8.20;;
72286;SDS011;60221;45.696;16.076;2023-06-22T13:14:49;13.60;;;8.20;;
72286;SDS011;60221;45.696;16.076;2023-06-22T13:17:15;12.20;;;8.20;;
72286;SDS011;60221;45.696;16.076;2023-06-22T13:19:42;13.20;;;7.80;;
72286;SDS011;60221;45.696;16.076;2023-06-22T13:22:25;14.90;;;8.10;;
72286;SDS011;60221;45.696;16.076;2023-06-22T13:24:52;16.40;;;7.90;;
72286;SDS011;60221;45.696;16.076;2023-06-22T13:27:21;14.40;;;8.30;;
72286;SDS011;60221;45.696;16.076;2023-06-22T13:29:48;12.90;;;7.80;;
72286;SDS011;60221;45.696;16.076;2023-06-22T13:32:14;12.00;;;8.30;;
72286;SDS011;60221;45.696;16.076;2023-06-22T13:34:42;14.20;;;7.70;;
72286;SDS011;60221;45.696;16.076;2023-06-22T13:37:08;15.40;;;8.10;;
72286;SDS011;60221;45.696;16.076;2023-06-22T13:39:35;16.00;;;7.60;;
72286;SDS011;60221;45.696;16.076;2023-06-22T13:42:02;13.20;;;8.00;;
72286;SDS011;60221;45.696;16.076;2023-06-22T13:44:28;11.90;;;7.80;;
72286;SDS011;60221;45.696;16.076;2023-06-22T13:46:55;12.70;;;8.50;;
72286;SDS011;60221;45.696;16.076;2023-06-22T13:49:22;13.20;;;7.50;;
72286;SDS011;60221;45.696;16.076;2023-06-22T13:51:48;13.60;;;8.20;;
72286;SDS011;60221;45.696;16.076;2023-06-22T13:54:15;13.30;;;7.60;;
72286;SDS011;60221;45.696;16.076;2023-06-22T13:56:55;13.20;;;7.60;;
72286;SDS011;60221;45.696;16.076;2023-06-22T13:59:22;13.90;;;8.00;;
72286;SDS011;60221;45.696;16.076;2023-06-22T14:01:49;10.60;;;7.40;;
72286;SDS011;60221;45.696;16.076;2023-06-22T14:04:15;12.40;;;8.20;;
72286;SDS011;60221;45.696;16.076;2023-06-22T14:06:42;18.20;;;8.30;;
72286;SDS011;60221;45.696;16.076;2023-06-22T14:09:09;11.50;;;7.80;;
72286;SDS011;60221;45.696;16.076;2023-06-22T14:11:36;12.90;;;8.20;;
72286;SDS011;60221;45.696;16.076;2023-06-22T14:14:02;11.50;;;8.30;;
72286;SDS011;60221;45.696;16.076;2023-06-22T14:16:29;16.70;;;7.80;;
72286;SDS011;60221;45.696;16.076;2023-06-22T14:18:56;15.40;;;7.70;;
72286;SDS011;60221;45.696;16.076;2023-06-22T14:21:24;13.40;;;7.90;;
72286;SDS011;60221;45.696;16.076;2023-06-22T14:23:50;12.10;;;8.00;;
72286;SDS011;60221;45.696;16.076;2023-06-22T14:26:17;12.70;;;7.40;;
72286;SDS011;60221;45.696;16.076;2023-06-22T14:28:47;14.80;;;8.70;;
72286;SDS011;60221;45.696;16.076;2023-06-22T14:31:17;15.70;;;8.20;;
72286;SDS011;60221;45.696;16.076;2023-06-22T14:33:45;10.90;;;8.20;;